Strathmore, New Jersey
Current Conditions -  °F | °C
As of 5:15 PM on Friday 24 Oct 2014 (Local Time) from KLDJ Reporting Station
Broken Clouds Broken Clouds  
Wind Chill: 22°   Ceiling: 5500
Heat Index: 22°   Visibility: 10mi
Dew Point:   Wind: 12mph
Humidity: 38%   Direction: 340°NNW
Pressure: 29.78"   Gusts: 16mph
Location:  40.4118°N, 74.2499°W
Report Text: KLDJ 242115Z AUTO 34010G14KT 10SM BKN055 22/07 A2978 RMK AO2 T02200071
Loading
Personal Weather Stations






























Interactive Weather Map
Tropical Storm Tracking
New forecast layout! Learn more

10-Day Weather Forecast

Advertisements
Track Severe Weather on mobile